Time;durP1;ratioP1;P1;durP2;ratioP2;P2;SDS_P1;SDS_P2;PMS_P1;PMS_P2;Temp;Humidity;BMP_temperature;BMP_pressure;BME280_temperature;BME280_humidity;BME280_pressure;Samples;Min_cycle;Max_cycle;Signal;HPM_P1;HPM_P2
2023/07/31 00:00:41;;;;;;;1.98;0.98;;;;;;;19.10;76.54;100094.94;2066107;28;20035;-88
2023/07/31 00:01:43;;;;;;;1.65;1.05;;;;;;;19.08;76.63;100092.59;2073140;28;20034;-88
2023/07/31 00:02:44;;;;;;;1.52;1.00;;;;;;;19.09;76.58;100096.88;2064853;28;20047;-88
2023/07/31 00:03:46;;;;;;;1.63;1.10;;;;;;;19.06;76.75;100094.84;2057271;28;20038;-91
2023/07/31 00:04:48;;;;;;;1.58;1.10;;;;;;;19.08;76.64;100098.03;2057361;28;20052;-95
2023/07/31 00:05:50;;;;;;;1.77;1.05;;;;;;;19.06;76.50;100097.59;2065794;28;20042;-90
2023/07/31 00:06:52;;;;;;;2.67;1.05;;;;;;;19.06;76.63;100097.59;2065178;28;20033;-89
2023/07/31 00:07:54;;;;;;;2.38;1.20;;;;;;;19.07;76.62;100098.38;2064435;28;20138;-89
2023/07/31 00:08:56;;;;;;;1.67;1.10;;;;;;;19.06;76.63;100097.59;2065248;28;20138;-94
2023/07/31 00:09:57;;;;;;;1.65;1.20;;;;;;;19.06;76.55;100094.06;2065368;28;20042;-90
2023/07/31 00:10:59;;;;;;;1.30;0.90;;;;;;;19.05;76.64;100093.28;2081626;28;20029;-94
2023/07/31 00:12:04;;;;;;;2.58;1.00;;;;;;;19.05;76.58;100096.00;2084911;28;20026;-91
2023/07/31 00:13:06;;;;;;;1.83;1.00;;;;;;;19.03;76.68;100094.75;2082326;28;20154;-93
2023/07/31 00:14:08;;;;;;;1.42;1.02;;;;;;;19.04;76.57;100097.16;2082136;28;20025;-94
2023/07/31 00:15:11;;;;;;;3.13;1.05;;;;;;;19.01;76.72;100095.13;2075732;28;20211;-86
2023/07/31 00:16:12;;;;;;;3.05;1.20;;;;;;;19.01;76.57;100086.94;2073177;28;20088;-93
2023/07/31 00:17:17;;;;;;;1.45;1.10;;;;;;;19.00;76.70;100093.50;2058790;28;20043;-93
2023/07/31 00:18:21;;;;;;;3.08;1.10;;;;;;;19.02;76.59;100091.25;2066411;28;20038;-90
2023/07/31 00:19:23;;;;;;;1.67;1.15;;;;;;;19.01;76.70;100088.84;2082005;28;20821;-89
2023/07/31 00:20:25;;;;;;;1.48;1.20;;;;;;;19.01;76.64;100091.59;2081328;28;20030;-87
2023/07/31 00:21:27;;;;;;;1.92;1.10;;;;;;;18.97;76.53;100083.31;2064561;28;20019;-87
2023/07/31 00:22:28;;;;;;;2.75;1.10;;;;;;;19.00;76.64;100079.91;2064540;28;20034;-82
2023/07/31 00:23:30;;;;;;;2.65;1.00;;;;;;;18.99;76.61;100070.16;2080784;28;20015;-82
2023/07/31 00:24:32;;;;;;;2.45;1.30;;;;;;;19.01;76.76;100073.31;2080623;28;20860;-82
2023/07/31 00:25:36;;;;;;;1.83;1.00;;;;;;;18.97;76.60;100064.25;2072884;28;20062;-82
2023/07/31 00:26:40;;;;;;;3.05;1.38;;;;;;;18.98;76.59;100057.69;2081083;28;20037;-82
2023/07/31 00:27:45;;;;;;;3.45;1.13;;;;;;;18.96;76.68;100059.94;2062813;28;20031;-87
2023/07/31 00:28:49;;;;;;;1.70;1.05;;;;;;;18.96;76.56;100054.50;2057590;28;20134;-84
2023/07/31 00:29:53;;;;;;;3.05;1.30;;;;;;;18.94;76.71;100046.66;2063170;28;20027;-85
2023/07/31 00:30:55;;;;;;;1.42;1.08;;;;;;;18.95;76.65;100048.25;2063517;28;20034;-85
2023/07/31 00:32:00;;;;;;;1.70;1.30;;;;;;;18.95;76.66;100042.03;2072234;28;20976;-83
2023/07/31 00:33:02;;;;;;;1.13;0.88;;;;;;;18.93;76.47;100041.56;2062490;28;20027;-83
2023/07/31 00:34:05;;;;;;;1.75;0.95;;;;;;;18.92;76.59;100037.25;2063382;28;20027;-84
2023/07/31 00:35:10;;;;;;;3.70;1.20;;;;;;;18.92;76.46;100048.16;2063170;28;20039;-85
2023/07/31 00:36:13;;;;;;;2.10;1.23;;;;;;;18.91;76.43;100041.91;2055473;28;20032;-85
2023/07/31 00:37:15;;;;;;;1.83;1.25;;;;;;;18.90;76.50;100050.44;2054539;28;20162;-85
2023/07/31 00:38:17;;;;;;;1.40;1.10;;;;;;;18.89;76.48;100054.31;2063027;28;20149;-85
2023/07/31 00:39:21;;;;;;;1.67;0.98;;;;;;;18.87;76.45;100046.47;2054634;28;20073;-84
2023/07/31 00:40:34;;;;;;;2.97;1.48;;;;;;;18.86;76.50;100050.34;2056768;28;20138;-85
2023/07/31 00:41:40;;;;;;;5.40;1.40;;;;;;;18.86;76.29;100049.53;2065815;28;20043;-84
2023/07/31 00:42:45;;;;;;;2.00;0.98;;;;;;;18.86;76.32;100038.66;2072156;28;20068;-84
2023/07/31 00:43:47;;;;;;;1.48;1.00;;;;;;;18.84;76.40;100047.16;2071346;28;20033;-84
2023/07/31 00:44:52;;;;;;;1.48;1.20;;;;;;;18.84;76.04;100040.91;2071391;28;20185;-83
2023/07/31 00:45:54;;;;;;;2.40;1.27;;;;;;;18.83;76.51;100042.06;2062673;28;20042;-83
2023/07/31 00:46:59;;;;;;;2.13;1.20;;;;;;;18.82;76.46;100037.75;2055754;28;20055;-82
2023/07/31 00:48:01;;;;;;;2.25;1.00;;;;;;;18.82;76.51;100043.19;2072745;28;21295;-83
2023/07/31 00:49:04;;;;;;;3.72;1.10;;;;;;;18.81;76.39;100039.69;2064191;28;20031;-82
2023/07/31 00:50:09;;;;;;;2.10;1.10;;;;;;;18.80;76.43;100031.88;2056320;28;20031;-83
2023/07/31 00:51:11;;;;;;;2.25;1.40;;;;;;;18.78;76.40;100039.56;2096611;28;21335;-82
2023/07/31 00:52:13;;;;;;;1.70;1.00;;;;;;;18.77;76.48;100029.84;2047584;28;20864;-85
2023/07/31 00:53:17;;;;;;;1.92;1.73;;;;;;;18.74;76.44;100032.09;2048678;28;20043;-86
2023/07/31 00:54:19;;;;;;;1.98;1.17;;;;;;;18.74;76.47;100029.38;2055798;28;20039;-85
2023/07/31 00:55:23;;;;;;;2.35;1.00;;;;;;;18.73;76.45;100033.25;2056043;28;20043;-85
2023/07/31 00:56:27;;;;;;;2.15;0.90;;;;;;;18.71;76.25;100029.25;2056425;28;20031;-85
2023/07/31 00:57:31;;;;;;;1.67;1.08;;;;;;;18.72;76.38;100034.38;2048974;28;20842;-85
2023/07/31 00:58:32;;;;;;;1.45;1.00;;;;;;;18.71;76.41;100027.31;2055777;28;20027;-85
2023/07/31 00:59:36;;;;;;;2.22;1.10;;;;;;;18.69;76.24;100032.31;2064956;28;20023;-85
2023/07/31 01:00:38;;;;;;;4.05;1.10;;;;;;;18.69;76.37;100032.31;2063840;28;20118;-85
2023/07/31 01:01:42;;;;;;;2.10;1.10;;;;;;;18.67;76.25;100029.16;2055983;28;20150;-85
2023/07/31 01:02:43;;;;;;;1.45;1.20;;;;;;;18.67;76.24;100031.88;2059445;28;21158;-85
2023/07/31 01:03:48;;;;;;;2.80;1.23;;;;;;;18.66;76.26;100035.75;2055980;28;20050;-84
2023/07/31 01:04:50;;;;;;;3.40;1.52;;;;;;;18.63;76.28;100025.53;2064786;28;20070;-83
2023/07/31 01:06:06;;;;;;;3.03;1.30;;;;;;;18.62;76.34;100029.38;2055103;28;20024;-85
2023/07/31 01:07:22;;;;;;;2.53;0.90;;;;;;;18.59;76.28;100037.44;2062463;28;20043;-85
2023/07/31 01:08:22;;;;;;;1.98;1.10;;;;;;;18.59;76.30;100030.06;2073745;28;20060;-85
2023/07/31 01:09:24;;;;;;;2.15;1.20;;;;;;;18.59;76.29;100029.28;2080283;27;20041;-85
2023/07/31 01:10:28;;;;;;;2.42;0.90;;;;;;;18.53;76.36;100040.41;2080147;28;20045;-86
2023/07/31 01:11:38;;;;;;;2.72;1.10;;;;;;;18.55;76.35;100034.63;2072525;28;20080;-86
2023/07/31 01:12:45;;;;;;;1.75;1.05;;;;;;;18.52;76.13;100040.75;2056886;28;20046;-85
2023/07/31 01:13:46;;;;;;;1.00;0.90;;;;;;;18.52;76.34;100046.22;2058048;28;20015;-83
2023/07/31 01:15:14;;;;;;;2.38;0.90;;;;;;;18.51;76.36;100034.53;2064248;28;20099;-85
2023/07/31 01:16:17;;;;;;;1.75;1.10;;;;;;;18.50;76.28;100038.38;2070702;28;20022;-84
2023/07/31 01:17:21;;;;;;;2.35;1.20;;;;;;;18.49;76.32;100036.00;2064354;28;20035;-84
2023/07/31 01:18:25;;;;;;;1.70;0.90;;;;;;;18.48;76.35;100040.66;2048558;28;20145;-84
2023/07/31 01:19:29;;;;;;;2.42;0.85;;;;;;;18.48;76.23;100037.16;2064817;28;20045;-84
2023/07/31 01:20:32;;;;;;;1.50;0.80;;;;;;;18.44;76.40;100031.59;2072222;28;20085;-84
2023/07/31 01:21:36;;;;;;;1.63;1.10;;;;;;;18.45;76.39;100035.13;2056745;28;20845;-84
2023/07/31 01:22:47;;;;;;;2.97;1.20;;;;;;;18.41;76.37;100036.94;2072808;28;20215;-85
2023/07/31 01:24:30;;;;;;;1.83;1.20;;;;;;;18.42;76.17;100041.25;2072043;28;20030;-85
2023/07/31 01:25:51;;;;;;;2.10;1.10;;;;;;;18.41;76.33;100050.53;2047823;28;20933;-85
2023/07/31 01:27:23;;;;;;;1.70;1.00;;;;;;;18.38;76.29;100059.38;2060846;28;20079;-85
2023/07/31 01:28:40;;;;;;;2.67;1.08;;;;;;;18.37;76.27;100065.97;2062873;28;20885;-85
2023/07/31 01:29:50;;;;;;;1.83;1.10;;;;;;;18.34;76.33;100056.56;2060270;28;20032;-84
2023/07/31 01:30:58;;;;;;;1.65;0.70;;;;;;;18.34;76.34;100055.78;2057164;28;20047;-84
2023/07/31 01:32:02;;;;;;;1.88;1.00;;;;;;;18.30;76.42;100050.22;2050365;28;20154;-86
2023/07/31 01:33:08;;;;;;;5.50;0.93;;;;;;;18.32;76.34;100063.50;2065689;28;20090;-83
2023/07/31 01:34:14;;;;;;;1.48;0.90;;;;;;;18.26;76.36;100052.06;2056529;28;20077;-84
2023/07/31 01:35:16;;;;;;;3.15;1.00;;;;;;;18.29;76.48;100068.47;2049751;28;20041;-84
2023/07/31 01:36:17;;;;;;;1.88;1.00;;;;;;;18.29;76.45;100054.88;2055651;28;20862;-83
2023/07/31 01:37:20;;;;;;;1.73;0.80;;;;;;;18.27;76.33;100068.03;2064233;28;20083;-83
2023/07/31 01:38:22;;;;;;;3.22;0.90;;;;;;;18.22;76.32;100049.22;2063863;28;20981;-84
2023/07/31 01:39:24;;;;;;;2.30;1.00;;;;;;;18.26;76.35;100066.44;2048066;28;20051;-84
2023/07/31 01:40:25;;;;;;;1.35;0.90;;;;;;;18.21;76.38;100046.84;2048487;28;20028;-83
2023/07/31 01:41:26;;;;;;;1.25;0.70;;;;;;;18.22;76.33;100065.56;2047607;28;20040;-84
2023/07/31 01:42:28;;;;;;;2.25;0.75;;;;;;;18.22;76.34;100054.66;2089707;28;20033;-83
2023/07/31 01:43:30;;;;;;;1.10;0.90;;;;;;;18.19;76.42;100049.09;2048536;28;20031;-83
2023/07/31 01:44:32;;;;;;;1.60;1.00;;;;;;;18.19;76.40;100047.19;2063651;28;20070;-84
2023/07/31 01:45:34;;;;;;;1.23;0.95;;;;;;;18.21;76.37;100047.63;2056355;28;20063;-81
2023/07/31 01:46:36;;;;;;;1.23;0.90;;;;;;;18.21;76.38;100061.22;2064676;28;20034;-81
2023/07/31 01:47:41;;;;;;;2.63;1.10;;;;;;;18.16;76.41;100047.88;2072954;28;20081;-82
2023/07/31 01:48:45;;;;;;;1.77;1.00;;;;;;;18.20;76.36;100051.50;2072828;28;20019;-81
2023/07/31 01:49:47;;;;;;;1.48;0.95;;;;;;;18.18;76.42;100050.25;2064155;28;20150;-81
2023/07/31 01:50:48;;;;;;;1.05;0.80;;;;;;;18.18;76.40;100053.75;2048313;28;20972;-80
2023/07/31 01:51:55;;;;;;;1.67;0.90;;;;;;;18.18;76.37;100053.75;2058185;28;20050;-80
2023/07/31 01:52:57;;;;;;;1.52;1.00;;;;;;;18.18;76.34;100045.59;2065796;28;20097;-79
2023/07/31 01:54:00;;;;;;;0.88;0.70;;;;;;;18.18;76.16;100051.03;2049207;28;20278;-80
2023/07/31 01:55:07;;;;;;;1.20;1.10;;;;;;;18.13;76.07;100045.84;2049618;28;20028;-81
2023/07/31 01:56:10;;;;;;;1.48;0.80;;;;;;;18.16;76.03;100050.59;2073252;28;20754;-82
2023/07/31 01:57:14;;;;;;;1.15;0.90;;;;;;;18.16;75.94;100056.03;2073101;28;20100;-81
2023/07/31 01:58:18;;;;;;;1.73;0.80;;;;;;;18.15;75.78;100053.63;2065184;28;20185;-81
2023/07/31 01:59:20;;;;;;;1.40;0.80;;;;;;;18.15;75.67;100056.34;2073306;28;20850;-81
2023/07/31 02:00:25;;;;;;;1.77;0.80;;;;;;;18.14;75.55;100047.41;2065248;28;20080;-81
2023/07/31 02:01:26;;;;;;;1.13;0.80;;;;;;;18.11;75.46;100042.66;2057525;28;20128;-81
2023/07/31 02:02:28;;;;;;;1.65;1.00;;;;;;;18.12;75.43;100060.56;2057166;28;20235;-82
2023/07/31 02:03:29;;;;;;;1.33;0.70;;;;;;;18.13;75.27;100040.38;2057388;28;20815;-82
2023/07/31 02:04:34;;;;;;;1.00;0.70;;;;;;;18.12;75.38;100044.22;2073131;28;20046;-81
2023/07/31 02:05:47;;;;;;;1.52;0.90;;;;;;;18.13;75.30;100045.03;2065095;28;20027;-83
2023/07/31 02:06:51;;;;;;;1.15;0.90;;;;;;;18.12;75.25;100044.22;2043262;28;20021;-81
2023/07/31 02:07:53;;;;;;;1.13;0.85;;;;;;;18.10;75.08;100035.63;2050636;28;20067;-82
2023/07/31 02:09:01;;;;;;;2.85;0.80;;;;;;;18.12;75.14;100043.44;2106953;28;20246;-82
2023/07/31 02:10:04;;;;;;;1.17;0.70;;;;;;;18.11;74.99;100036.41;2086154;28;20034;-82
2023/07/31 02:11:06;;;;;;;0.88;0.88;;;;;;;18.10;74.90;100051.94;2049520;28;20044;-84
2023/07/31 02:12:10;;;;;;;2.00;1.15;;;;;;;18.09;74.94;100044.13;2068152;28;20065;-83
2023/07/31 02:13:12;;;;;;;1.63;0.85;;;;;;;18.09;74.88;100050.34;2065686;28;20976;-81
2023/07/31 02:14:14;;;;;;;1.45;0.80;;;;;;;18.09;74.92;100044.13;2065264;28;20035;-85
2023/07/31 02:15:21;;;;;;;0.95;0.80;;;;;;;18.06;74.79;100045.59;2073913;28;20869;-85
2023/07/31 02:16:22;;;;;;;2.55;0.95;;;;;;;18.08;74.83;100042.53;2081999;28;20018;-84
2023/07/31 02:17:27;;;;;;;2.00;0.90;;;;;;;18.07;74.77;100041.75;2081126;28;20073;-81
2023/07/31 02:18:33;;;;;;;3.17;0.80;;;;;;;18.03;74.67;100035.38;2066948;28;20039;-81
2023/07/31 02:19:37;;;;;;;2.38;1.00;;;;;;;18.05;74.63;100044.81;2074863;28;20137;-81
2023/07/31 02:20:41;;;;;;;1.25;0.80;;;;;;;18.05;74.61;100044.00;2073594;28;20115;-84
2023/07/31 02:21:48;;;;;;;1.60;0.80;;;;;;;18.03;74.62;100044.38;2082187;28;20022;-84
2023/07/31 02:22:52;;;;;;;1.23;0.80;;;;;;;18.04;74.61;100042.44;2082127;28;20018;-81
2023/07/31 02:23:58;;;;;;;2.50;1.05;;;;;;;18.04;74.56;100042.44;2081981;28;20061;-81
2023/07/31 02:24:59;;;;;;;1.67;0.70;;;;;;;18.03;74.59;100040.84;2073869;28;20049;-85
2023/07/31 02:26:04;;;;;;;2.75;1.00;;;;;;;18.02;74.42;100045.47;2072702;28;20042;-83
2023/07/31 02:27:06;;;;;;;1.13;0.73;;;;;;;18.02;74.46;100042.75;2073315;28;20046;-81
2023/07/31 02:28:10;;;;;;;1.63;0.90;;;;;;;18.01;74.55;100045.84;2088696;28;20120;-81
2023/07/31 02:29:12;;;;;;;2.17;0.85;;;;;;;17.99;74.54;100046.16;2081490;28;20061;-82
2023/07/31 02:30:14;;;;;;;2.38;1.10;;;;;;;18.00;74.54;100042.34;2041634;28;20047;-82
2023/07/31 02:31:15;;;;;;;1.00;0.88;;;;;;;17.99;74.50;100050.81;2041081;28;20044;-81
2023/07/31 02:32:17;;;;;;;2.13;1.60;;;;;;;18.00;74.55;100046.94;2049068;28;20039;-81
2023/07/31 02:33:23;;;;;;;2.47;0.90;;;;;;;17.98;74.55;100050.03;2049626;28;20032;-83
2023/07/31 02:34:33;;;;;;;2.65;0.90;;;;;;;17.96;74.40;100051.50;2058115;28;20039;-84
2023/07/31 02:35:37;;;;;;;1.95;0.93;;;;;;;17.97;74.56;100053.06;2049932;28;20039;-85
2023/07/31 02:36:39;;;;;;;1.70;0.80;;;;;;;17.95;74.54;100056.16;2048967;28;20032;-81
2023/07/31 02:37:42;;;;;;;3.67;1.10;;;;;;;17.93;74.71;100055.69;2057183;28;20121;-81
2023/07/31 02:38:44;;;;;;;2.63;0.80;;;;;;;17.93;74.60;100055.69;2065055;28;20088;-85
2023/07/31 02:39:45;;;;;;;1.33;0.90;;;;;;;17.90;74.52;100052.84;2056789;28;20947;-83
2023/07/31 02:40:50;;;;;;;1.92;0.90;;;;;;;17.89;74.67;100051.28;2049294;28;20882;-83
2023/07/31 02:41:52;;;;;;;5.63;1.00;;;;;;;17.89;74.65;100048.56;2056983;28;20808;-86
2023/07/31 02:42:58;;;;;;;3.25;0.95;;;;;;;17.88;74.53;100053.22;2057217;28;20039;-82
2023/07/31 02:44:00;;;;;;;3.13;0.98;;;;;;;17.88;74.60;100060.56;2049983;28;20170;-82
2023/07/31 02:45:02;;;;;;;3.50;0.80;;;;;;;17.87;74.66;100058.97;2056549;28;20050;-84
2023/07/31 02:46:04;;;;;;;2.15;0.80;;;;;;;17.85;74.70;100055.81;2048489;28;20855;-82
2023/07/31 02:47:05;;;;;;;4.90;1.08;;;;;;;17.83;74.61;100059.66;2048808;28;20043;-85
2023/07/31 02:48:10;;;;;;;2.05;0.90;;;;;;;17.81;74.63;100056.50;2057389;28;20865;-82
2023/07/31 02:49:14;;;;;;;1.88;1.05;;;;;;;17.81;74.63;100061.94;2056904;28;20809;-82
2023/07/31 02:50:18;;;;;;;1.88;0.82;;;;;;;17.80;74.69;100054.09;2057331;28;20984;-82
2023/07/31 02:51:23;;;;;;;1.73;0.90;;;;;;;17.78;74.74;100051.72;2073354;28;20076;-82
2023/07/31 02:52:27;;;;;;;2.35;0.80;;;;;;;17.77;74.75;100058.28;2065483;28;20046;-83
2023/07/31 02:53:35;;;;;;;2.88;1.17;;;;;;;17.77;74.73;100054.78;2066330;28;20074;-80
2023/07/31 02:54:37;;;;;;;1.42;1.08;;;;;;;17.75;74.85;100046.94;2065414;28;20069;-81
2023/07/31 02:55:40;;;;;;;2.35;0.80;;;;;;;17.76;74.95;100053.94;2049056;28;20032;-81
2023/07/31 02:56:44;;;;;;;1.38;0.90;;;;;;;17.75;75.03;100049.66;2049294;28;20040;-80
2023/07/31 02:57:55;;;;;;;3.53;0.95;;;;;;;17.74;75.07;100050.78;2058354;28;20047;-80
2023/07/31 02:58:59;;;;;;;1.40;0.82;;;;;;;17.75;75.01;100054.31;2058580;28;20154;-80
2023/07/31 03:00:00;;;;;;;1.45;0.80;;;;;;;17.72;74.99;100050.34;2057088;28;20034;-80
2023/07/31 03:01:05;;;;;;;2.42;0.80;;;;;;;17.74;75.04;100058.94;2073036;28;20052;-79
2023/07/31 03:02:07;;;;;;;1.60;0.80;;;;;;;17.73;74.99;100054.63;2080741;28;20034;-79
2023/07/31 03:03:11;;;;;;;3.15;1.00;;;;;;;17.73;75.08;100054.63;2056622;28;20038;-80
2023/07/31 03:04:12;;;;;;;1.05;0.70;;;;;;;17.73;75.10;100049.19;2041226;28;20150;-81
2023/07/31 03:05:14;;;;;;;2.58;0.77;;;;;;;17.71;75.15;100059.59;2057008;28;20050;-81
2023/07/31 03:06:18;;;;;;;2.92;0.95;;;;;;;17.74;75.22;100055.41;2064686;28;20962;-80
2023/07/31 03:07:20;;;;;;;2.50;0.90;;;;;;;17.72;75.27;100072.09;2057481;28;20959;-79
2023/07/31 03:08:21;;;;;;;3.50;1.00;;;;;;;17.73;75.24;100060.06;2072919;28;20020;-79
2023/07/31 03:09:28;;;;;;;1.70;0.88;;;;;;;17.72;75.27;100061.22;2080281;28;20042;-80
2023/07/31 03:10:30;;;;;;;1.50;0.80;;;;;;;17.73;75.38;100060.06;2073501;28;20038;-80
2023/07/31 03:11:32;;;;;;;2.00;0.80;;;;;;;17.73;75.34;100060.06;2056211;28;20846;-79
2023/07/31 03:12:34;;;;;;;2.72;1.20;;;;;;;17.75;75.46;100062.47;2064937;28;20168;-80
2023/07/31 03:13:36;;;;;;;2.05;0.90;;;;;;;17.74;75.46;100056.22;2072547;28;20039;-79
2023/07/31 03:14:38;;;;;;;1.98;1.00;;;;;;;17.75;75.46;100065.19;2056767;28;20036;-79
2023/07/31 03:15:43;;;;;;;1.20;0.80;;;;;;;17.77;75.41;100062.94;2058096;28;20190;-80
2023/07/31 03:16:45;;;;;;;2.10;0.80;;;;;;;17.77;75.39;100058.28;2072525;28;20956;-81
2023/07/31 03:17:47;;;;;;;4.35;1.10;;;;;;;17.78;75.34;100068.03;2097732;28;20090;-82
2023/07/31 03:18:51;;;;;;;2.05;0.90;;;;;;;17.79;75.35;100066.13;2056688;28;20854;-81
2023/07/31 03:19:55;;;;;;;2.20;0.82;;;;;;;17.79;75.32;100064.19;2065418;28;20034;-81
2023/07/31 03:20:59;;;;;;;1.85;0.80;;;;;;;17.79;75.32;100068.84;2065052;28;20034;-81
2023/07/31 03:22:03;;;;;;;2.28;1.10;;;;;;;17.82;75.31;100068.16;2065269;28;20038;-79
2023/07/31 03:23:06;;;;;;;2.78;1.00;;;;;;;17.81;75.26;100061.94;2065576;28;20023;-79
2023/07/31 03:24:07;;;;;;;2.78;0.93;;;;;;;17.84;75.35;100060.44;2064790;28;20034;-79
2023/07/31 03:25:11;;;;;;;1.00;0.90;;;;;;;17.83;75.18;100065.09;2064906;28;20168;-78
2023/07/31 03:26:15;;;;;;;5.43;1.00;;;;;;;17.86;75.18;100069.06;2064747;28;20042;-81
2023/07/31 03:27:23;;;;;;;1.20;0.90;;;;;;;17.88;75.22;100066.00;2058333;28;20126;-79
2023/07/31 03:28:24;;;;;;;5.55;1.10;;;;;;;17.88;75.16;100071.44;2072750;28;20131;-79
2023/07/31 03:29:28;;;;;;;2.45;0.88;;;;;;;17.90;75.13;100066.44;2064516;28;20876;-81
2023/07/31 03:30:31;;;;;;;1.45;0.82;;;;;;;17.91;75.18;100065.34;2081601;28;20168;-80
2023/07/31 03:31:38;;;;;;;4.25;1.00;;;;;;;17.91;75.04;100071.56;2080472;27;20899;-80
2023/07/31 03:32:43;;;;;;;1.80;1.00;;;;;;;17.93;75.15;100069.28;2073842;28;20034;-80
2023/07/31 03:33:45;;;;;;;2.25;0.90;;;;;;;17.96;75.04;100067.81;2073275;28;20023;-80
2023/07/31 03:34:47;;;;;;;3.63;0.90;;;;;;;17.98;75.12;100068.28;2073019;28;20026;-79
2023/07/31 03:35:49;;;;;;;3.03;0.80;;;;;;;18.02;75.06;100074.63;2072820;28;20038;-79
2023/07/31 03:36:51;;;;;;;3.38;1.17;;;;;;;18.03;75.00;100073.47;2106246;28;20858;-80
2023/07/31 03:37:52;;;;;;;2.25;0.98;;;;;;;18.05;75.01;100068.50;2065172;28;20831;-80
2023/07/31 03:38:53;;;;;;;2.45;0.90;;;;;;;18.06;75.03;100079.06;2064757;28;20040;-80
2023/07/31 03:39:58;;;;;;;1.90;0.88;;;;;;;18.11;74.91;100080.75;2065414;28;20031;-80
2023/07/31 03:41:02;;;;;;;2.75;1.00;;;;;;;18.15;74.86;100072.69;2080559;28;20034;-80
2023/07/31 03:42:04;;;;;;;2.05;1.02;;;;;;;18.17;74.95;100079.38;2072765;28;20725;-80
2023/07/31 03:43:10;;;;;;;3.25;1.20;;;;;;;18.20;74.85;100073.25;2081051;28;20054;-80
2023/07/31 03:44:14;;;;;;;2.92;1.02;;;;;;;18.25;74.79;100074.94;2072763;28;20080;-80
2023/07/31 03:45:19;;;;;;;1.42;0.77;;;;;;;18.27;74.66;100072.69;2073688;28;20221;-80
2023/07/31 03:46:21;;;;;;;1.77;1.00;;;;;;;18.32;74.63;100077.09;2073272;28;20034;-80
2023/07/31 03:47:24;;;;;;;2.22;0.82;;;;;;;18.35;74.23;100074.50;2073039;28;20040;-81
2023/07/31 03:48:25;;;;;;;1.15;0.80;;;;;;;18.39;74.34;100067.22;2064600;28;20038;-81
2023/07/31 03:49:30;;;;;;;2.38;0.80;;;;;;;18.43;74.32;100068.13;2057761;28;20146;-81
2023/07/31 03:50:32;;;;;;;2.55;0.80;;;;;;;18.48;74.12;100078.78;2072718;28;20786;-81
2023/07/31 03:51:33;;;;;;;2.15;0.75;;;;;;;18.50;74.03;100076.47;2098054;28;20084;-81
2023/07/31 03:52:36;;;;;;;3.40;1.00;;;;;;;18.54;73.88;100071.16;2072819;28;20022;-81
2023/07/31 03:53:38;;;;;;;1.92;0.98;;;;;;;18.58;73.90;100071.28;2072457;28;20856;-81
2023/07/31 03:54:40;;;;;;;1.35;0.90;;;;;;;18.60;73.56;100071.69;2072950;28;20131;-81
2023/07/31 03:55:44;;;;;;;2.10;1.00;;;;;;;18.66;73.53;100078.50;2064664;28;20154;-82
2023/07/31 03:56:49;;;;;;;1.75;1.00;;;;;;;18.70;73.54;100079.41;2065523;28;20112;-81
2023/07/31 03:57:52;;;;;;;1.83;1.15;;;;;;;18.72;73.31;100077.13;2072344;28;20042;-81
2023/07/31 03:58:54;;;;;;;3.53;0.90;;;;;;;18.78;73.17;100080.44;2056911;28;20027;-81
2023/07/31 03:59:59;;;;;;;3.95;0.98;;;;;;;18.81;73.06;100079.75;2065685;28;20861;-81
2023/07/31 04:01:01;;;;;;;2.90;1.20;;;;;;;18.80;72.91;100078.16;2072452;28;20079;-80
2023/07/31 04:02:04;;;;;;;2.75;1.00;;;;;;;18.82;72.63;100081.31;2072462;28;20034;-80
2023/07/31 04:03:07;;;;;;;2.33;0.90;;;;;;;18.83;72.54;100088.38;2072800;28;20086;-80
2023/07/31 04:04:08;;;;;;;4.68;1.15;;;;;;;18.81;72.51;100079.75;2114236;28;20129;-80
2023/07/31 04:05:10;;;;;;;2.72;1.20;;;;;;;18.80;72.49;100084.41;2071963;28;20074;-81
2023/07/31 04:06:12;;;;;;;2.55;1.10;;;;;;;18.79;72.50;100077.38;2071952;28;20943;-81
2023/07/31 04:07:16;;;;;;;3.72;1.27;;;;;;;18.81;72.46;100085.19;2072357;28;20038;-82
2023/07/31 04:08:18;;;;;;;4.20;1.10;;;;;;;18.81;72.50;100079.75;2065159;28;20145;-82
2023/07/31 04:09:20;;;;;;;2.67;1.00;;;;;;;18.80;72.55;100083.63;2064661;28;20039;-83
2023/07/31 04:10:22;;;;;;;3.58;1.20;;;;;;;18.79;72.48;100079.28;2056422;28;20165;-82
2023/07/31 04:11:24;;;;;;;3.13;0.95;;;;;;;18.74;72.53;100077.59;2064145;28;20896;-83
2023/07/31 04:12:25;;;;;;;3.00;1.20;;;;;;;18.80;72.64;100078.16;2063338;28;20066;-83
2023/07/31 04:13:28;;;;;;;3.53;1.23;;;;;;;18.80;72.76;100078.94;2064232;28;20133;-83
2023/07/31 04:14:33;;;;;;;3.55;1.10;;;;;;;18.83;72.94;100088.38;2063918;28;21016;-83
2023/07/31 04:15:35;;;;;;;2.08;1.05;;;;;;;18.83;72.83;100088.38;2056309;28;20086;-83
2023/07/31 04:16:39;;;;;;;4.20;1.27;;;;;;;18.86;72.91;100076.78;2056652;28;20043;-83
2023/07/31 04:17:42;;;;;;;2.60;1.10;;;;;;;18.87;72.90;100072.91;2088412;28;20017;-83
2023/07/31 04:18:46;;;;;;;2.30;1.00;;;;;;;18.92;73.02;100078.13;2056884;28;20845;-83
2023/07/31 04:19:51;;;;;;;4.72;1.35;;;;;;;18.94;73.21;100084.00;2072997;28;20042;-87
2023/07/31 04:20:55;;;;;;;3.72;1.20;;;;;;;19.00;73.05;100077.16;2065031;28;20023;-85
2023/07/31 04:21:59;;;;;;;1.65;1.00;;;;;;;19.04;73.05;100078.09;2066091;28;20049;-82
2023/07/31 04:23:03;;;;;;;2.97;0.80;;;;;;;19.07;73.09;100071.13;2050340;28;20028;-82
2023/07/31 04:24:08;;;;;;;3.90;1.13;;;;;;;19.12;73.15;100074.41;2059089;28;20813;-83
2023/07/31 04:25:10;;;;;;;2.70;0.95;;;;;;;19.18;73.10;100072.22;2065351;28;20042;-82
2023/07/31 04:26:14;;;;;;;2.22;1.00;;;;;;;19.25;73.12;100079.78;2065857;28;20038;-83
2023/07/31 04:27:16;;;;;;;2.55;0.90;;;;;;;19.30;73.17;100071.38;2057819;28;20184;-82
2023/07/31 04:28:17;;;;;;;2.05;0.98;;;;;;;19.39;72.96;100085.63;2064274;28;20082;-82
2023/07/31 04:29:24;;;;;;;2.25;1.10;;;;;;;19.47;73.05;100090.13;2073912;28;20854;-79
2023/07/31 04:30:28;;;;;;;2.03;1.05;;;;;;;19.54;73.14;100081.31;2081891;28;20885;-81
2023/07/31 04:31:31;;;;;;;4.45;1.30;;;;;;;19.64;72.95;100084.38;2074634;28;20034;-81
2023/07/31 04:32:35;;;;;;;1.92;0.90;;;;;;;19.73;73.02;100080.66;2082410;28;20026;-80
2023/07/31 04:33:38;;;;;;;1.55;0.95;;;;;;;19.84;72.76;100087.19;2073162;28;20157;-80
2023/07/31 04:34:40;;;;;;;2.53;1.10;;;;;;;19.95;72.48;100077.31;2074242;28;20069;-80
2023/07/31 04:35:42;;;;;;;2.95;1.00;;;;;;;20.05;72.31;100076.81;2081875;28;20026;-79
2023/07/31 04:36:49;;;;;;;4.55;0.93;;;;;;;20.14;72.11;100077.41;2074737;28;20120;-80
2023/07/31 04:37:53;;;;;;;2.15;0.93;;;;;;;20.31;71.88;100078.94;2082334;28;20026;-82
2023/07/31 04:38:58;;;;;;;1.77;1.48;;;;;;;20.43;71.65;100075.31;2074330;28;20145;-79
2023/07/31 04:40:03;;;;;;;1.65;0.80;;;;;;;20.58;71.47;100082.69;2074415;28;20140;-80
2023/07/31 04:41:07;;;;;;;1.63;0.90;;;;;;;20.73;71.13;100088.47;2082644;28;20136;-80
2023/07/31 04:42:09;;;;;;;1.35;0.90;;;;;;;20.86;70.72;100076.22;2080837;28;20033;-80
2023/07/31 04:43:18;;;;;;;2.90;1.00;;;;;;;21.02;70.41;100085.13;2073707;28;20822;-80
2023/07/31 04:44:23;;;;;;;3.83;1.13;;;;;;;21.21;69.88;100078.88;2083272;28;20885;-80
2023/07/31 04:45:26;;;;;;;1.75;0.80;;;;;;;21.36;69.43;100076.44;2081370;28;20053;-80
2023/07/31 04:46:27;;;;;;;2.33;0.90;;;;;;;21.49;68.96;100081.38;2081730;28;20034;-83
2023/07/31 04:47:34;;;;;;;2.90;0.80;;;;;;;21.66;68.32;100077.38;2081963;28;20052;-83
2023/07/31 04:48:39;;;;;;;2.08;0.90;;;;;;;21.82;67.66;100074.50;2090451;28;20026;-83
2023/07/31 04:49:40;;;;;;;1.58;0.90;;;;;;;21.92;67.17;100071.16;2073219;28;20100;-82
2023/07/31 04:50:46;;;;;;;2.92;0.90;;;;;;;22.11;66.59;100069.47;2075878;28;20141;-81
2023/07/31 04:51:47;;;;;;;5.75;1.00;;;;;;;22.22;65.97;100084.13;2098626;28;20017;-82
2023/07/31 04:52:53;;;;;;;2.25;0.75;;;;;;;22.38;65.37;100070.28;2065765;28;20039;-83
2023/07/31 04:53:56;;;;;;;6.53;1.20;;;;;;;22.48;64.92;100068.84;2073710;28;20050;-80
2023/07/31 04:54:57;;;;;;;3.63;1.05;;;;;;;22.60;64.30;100074.09;2070126;28;20089;-80
2023/07/31 04:55:59;;;;;;;2.40;0.73;;;;;;;22.71;63.69;100077.78;2041114;28;20075;-81
2023/07/31 04:57:00;;;;;;;2.60;0.98;;;;;;;22.80;63.20;100069.28;2049553;28;20043;-79